Iaşi, Republic of Moldova

01:46 AM EET on ianuarie 22, 2017 (GMT +0200)
Iasi | | Change Station

Elev 341 ft 47.17 °N, 27.63 °E | Updated 16 minutes ago

Zăpadă
Zăpadă
34 °F
Feels Like 29 °F
N
6
Vânt variabil Vânt from NV

astăzi
High -- | Low -- °F
--% Chance of Precip.
Ieri
High -- | Low -- °F
Precip. -- inch
Presiunea 30.48 inch
Vizibilitatea 4.3 mile
Nori Nori risipiţi 700 ft
Cer în general noros 1200 ft
Vânt rece 29 °F
Punctul de rouă 30 °F
Umiditatea 87%
Precipitaţii 0.00 inch
Adâncimea zăpezii Not available.
7:45 AM 4:55 PM
Semilună în descreştere, 31% visible
METAR LRIA 212330Z 32005KT 7000 SCT007 BKN012 01/M01 Q1032 RMK R14/29//95
Presiunea 30.48 inch
Vizibilitatea 4.3 mile
Nori Nori risipiţi 700 ft
Cer în general noros 1200 ft
Vânt rece 29 °F
Punctul de rouă 30 °F
Umiditatea 87%
Precipitaţii 0.00 inch
Adâncimea zăpezii Not available.
7:45 AM 4:55 PM
Semilună în descreştere, 31% visible
METAR LRIA 212330Z 32005KT 7000 SCT007 BKN012 01/M01 Q1032 RMK R14/29//95

Get Your Daily Forecast Email!

Thanks for signing up!

Be on the lookout for a verification email in your inbox.

You'll start receiving the daily forecast at 8 AM.

×

10-Day Weather Forecast

×

Almanac

Astronomie

Jan. 22, 2017 Răsărit Apus
Timpul Actual
Crepusculul Civil
Crepusculul nautic
Răsărit Astronomic
Luna
Durata zilei lumină
Lungimea zilei
Tomorrow will be .
, % of the Moon is Illuminated

Extremele de azi

Country Highs Country Lows

Community

WunderPhotos

Upload Photos

1,962,540 photos uploaded!

WunderBlog® & News

Nearby

Calitatea aerului

  Calitatea aerului Index de calitate a aerului Poluat
Not available.

Adâncimea zapezii

Station Depth Elevation

Earthquake Activity

Oraş Distance Mag. Time & Date
Minimum magnitude displayed is 2.5.

Coastal Water Temperatures

Locul Temperatura

Stations

Nearby Weather Stations

Locaţia staţiei Temp Vânt rece Punctul de rouă Umiditatea Vânt Precip. Elev Actualizare Type